Time;durP1;ratioP1;P1;durP2;ratioP2;P2;SDS_P1;SDS_P2;PMS_P1;PMS_P2;Temp;Humidity;BMP_temperature;BMP_pressure;BME280_temperature;BME280_humidity;BME280_pressure;Samples;Min_cycle;Max_cycle;Signal;HPM_P1;HPM_P2
2022/08/18 00:00:57;;;;;;;;;;;;;;;20.91;100.00;99667.53;3054002;19;1090;-49
2022/08/18 00:02:14;;;;;;;;;;;;;;;20.93;100.00;99674.50;3054377;19;1223;-50
2022/08/18 00:03:18;;;;;;;;;;;;;;;20.93;100.00;99666.34;3046159;19;1470;-49
2022/08/18 00:04:42;;;;;;;;;;;;;;;20.95;100.00;99672.44;3045827;19;1281;-49
2022/08/18 00:05:50;;;;;;;;;;;;;;;20.95;100.00;99679.72;3045741;19;1341;-49
2022/08/18 00:06:55;;;;;;;;;;;;;;;20.96;100.00;99674.13;3048030;19;988;-49
2022/08/18 00:07:57;;;;;;;;;;;;;;;20.95;100.00;99680.59;3048094;19;1415;-49
2022/08/18 00:09:03;;;;;;;;;;;;;;;20.96;100.00;99678.72;3050158;19;930;-51
2022/08/18 00:10:05;;;;;;;;;;;;;;;20.94;100.00;99688.91;3051818;19;1331;-49
2022/08/18 00:11:25;;;;;;;;;;;;;;;20.91;100.00;99698.22;3054266;19;1181;-49
2022/08/18 00:12:31;;;;;;;;;;;;;;;20.89;100.00;99696.75;3054178;19;1167;-49
2022/08/18 00:13:36;;;;;;;;;;;;;;;20.85;100.00;99705.22;3054453;19;961;-49
2022/08/18 00:14:38;;;;;;;;;;;;;;;20.83;100.00;99703.72;3054417;19;1217;-49
2022/08/18 00:15:42;;;;;;;;;;;;;;;20.79;100.00;99713.22;3053297;19;1853;-49
2022/08/18 00:16:51;;;;;;;;;;;;;;;20.76;100.00;99716.31;3054202;19;1173;-48
2022/08/18 00:17:56;;;;;;;;;;;;;;;20.64;100.00;99704.19;3054377;19;1058;-49
2022/08/18 00:18:58;;;;;;;;;;;;;;;20.66;100.00;99716.53;3053564;19;977;-48
2022/08/18 00:20:03;;;;;;;;;;;;;;;20.62;100.00;99717.91;3054047;19;1733;-49
2022/08/18 00:21:05;;;;;;;;;;;;;;;20.59;100.00;99729.09;3054294;19;1175;-49
2022/08/18 00:22:09;;;;;;;;;;;;;;;20.56;100.00;99728.59;3053197;19;1086;-49
2022/08/18 00:23:17;;;;;;;;;;;;;;;20.51;100.00;99728.31;3054434;19;1201;-49
2022/08/18 00:24:21;;;;;;;;;;;;;;;20.47;100.00;99731.38;3054977;19;1133;-49
2022/08/18 00:25:23;;;;;;;;;;;;;;;20.43;100.00;99729.19;3048952;19;969;-49
2022/08/18 00:26:27;;;;;;;;;;;;;;;20.41;100.00;99729.34;3046419;19;851;-49
2022/08/18 00:27:38;;;;;;;;;;;;;;;20.37;100.00;99725.31;3046539;19;1098;-49
2022/08/18 00:28:42;;;;;;;;;;;;;;;20.36;100.00;99729.03;3046864;19;1408;-49
2022/08/18 00:29:44;;;;;;;;;;;;;;;20.34;100.00;99722.91;3048189;19;949;-50
2022/08/18 00:30:49;;;;;;;;;;;;;;;20.32;100.00;99724.97;3049091;19;846;-49
2022/08/18 00:31:54;;;;;;;;;;;;;;;20.30;100.00;99728.84;3049157;19;830;-49
2022/08/18 00:32:59;;;;;;;;;;;;;;;20.29;100.00;99724.44;3052634;19;1055;-49
2022/08/18 00:34:01;;;;;;;;;;;;;;;20.20;100.00;99704.69;3053741;19;1458;-48
2022/08/18 00:35:07;;;;;;;;;;;;;;;20.27;100.00;99712.97;3053856;19;1858;-50
2022/08/18 00:36:10;;;;;;;;;;;;;;;20.28;100.00;99711.94;3054267;19;1182;-50
2022/08/18 00:37:14;;;;;;;;;;;;;;;20.26;100.00;99712.13;3053799;19;1130;-49
2022/08/18 00:38:16;;;;;;;;;;;;;;;20.26;100.00;99708.56;3054321;19;1017;-49
2022/08/18 00:39:29;;;;;;;;;;;;;;;20.26;100.00;99695.88;3056288;19;1065;-49
2022/08/18 00:40:45;;;;;;;;;;;;;;;20.26;100.00;99706.72;3056321;19;1222;-50
2022/08/18 00:41:49;;;;;;;;;;;;;;;20.26;100.00;99701.28;3057223;19;1219;-49
2022/08/18 00:42:52;;;;;;;;;;;;;;;20.26;100.00;99705.88;3057331;19;950;-49
2022/08/18 00:43:57;;;;;;;;;;;;;;;20.25;100.00;99699.59;3057138;19;972;-50
2022/08/18 00:45:00;;;;;;;;;;;;;;;20.23;100.00;99704.34;3056886;19;1179;-49
2022/08/18 00:46:08;;;;;;;;;;;;;;;20.20;100.00;99707.38;3056717;19;1150;-49
2022/08/18 00:47:09;;;;;;;;;;;;;;;20.19;100.00;99716.53;3055622;19;1221;-48
2022/08/18 00:48:14;;;;;;;;;;;;;;;20.15;100.00;99720.63;3049610;19;1009;-49
2022/08/18 00:49:21;;;;;;;;;;;;;;;20.15;100.00;99720.63;3049556;19;1326;-49
2022/08/18 00:50:27;;;;;;;;;;;;;;;20.13;100.00;99718.09;3049679;19;1047;-48
2022/08/18 00:51:36;;;;;;;;;;;;;;;20.13;100.00;99723.50;3050901;19;973;-48
2022/08/18 00:52:38;;;;;;;;;;;;;;;20.11;100.00;99714.72;3050842;19;1289;-49
2022/08/18 00:53:46;;;;;;;;;;;;;;;20.10;100.00;99717.59;3051608;19;922;-49
2022/08/18 00:54:48;;;;;;;;;;;;;;;20.08;100.00;99714.22;3051013;19;1360;-49
2022/08/18 00:55:53;;;;;;;;;;;;;;;20.07;100.00;99707.09;3055230;19;1834;-49
2022/08/18 00:56:56;;;;;;;;;;;;;;;20.07;100.00;99712.50;3055823;19;1016;-49
2022/08/18 00:58:06;;;;;;;;;;;;;;;20.06;100.00;99710.81;3056945;19;1065;-49
2022/08/18 00:59:10;;;;;;;;;;;;;;;20.04;100.00;99712.88;3055858;19;1230;-49
2022/08/18 01:00:14;;;;;;;;;;;;;;;20.03;100.00;99711.19;3056100;19;1066;-50
2022/08/18 01:01:17;;;;;;;;;;;;;;;20.01;100.00;99714.06;3056218;19;956;-50
2022/08/18 01:02:24;;;;;;;;;;;;;;;20.00;100.00;99716.94;3055432;19;993;-50
2022/08/18 01:03:27;;;;;;;;;;;;;;;19.99;100.00;99715.25;3056038;19;1161;-49
2022/08/18 01:04:36;;;;;;;;;;;;;;;19.97;100.00;99717.28;3056322;19;1087;-49
2022/08/18 01:05:45;;;;;;;;;;;;;;;19.96;100.00;99726.44;3056067;19;1186;-48
2022/08/18 01:06:53;;;;;;;;;;;;;;;19.94;100.00;99725.75;3055324;19;1036;-48
2022/08/18 01:07:55;;;;;;;;;;;;;;;19.93;100.00;99726.75;3055858;19;1175;-49
2022/08/18 01:09:00;;;;;;;;;;;;;;;19.91;100.00;99723.41;3055499;19;1656;-48
2022/08/18 01:10:04;;;;;;;;;;;;;;;19.90;100.00;99724.44;3054605;19;1055;-48
2022/08/18 01:11:09;;;;;;;;;;;;;;;19.90;100.00;99733.41;3048486;19;1025;-49
2022/08/18 01:12:13;;;;;;;;;;;;;;;19.87;100.00;99731.03;3048748;19;1176;-49
2022/08/18 01:13:37;;;;;;;;;;;;;;;19.84;100.00;99734.06;3049538;19;998;-49
2022/08/18 01:14:39;;;;;;;;;;;;;;;19.82;100.00;99733.41;3050585;19;944;-49
2022/08/18 01:15:43;;;;;;;;;;;;;;;19.78;100.00;99730.22;3050247;19;1870;-49
2022/08/18 01:22:02;;;;;;;;;;;;;;;19.68;100.00;99729.53;3054693;19;1037;-49
2022/08/18 01:23:11;;;;;;;;;;;;;;;19.66;100.00;99722.63;3055842;19;1041;-49
2022/08/18 01:24:15;;;;;;;;;;;;;;;19.64;100.00;99721.94;3055101;19;1373;-49
2022/08/18 01:26:45;;;;;;;;;;;;;;;19.62;100.00;99722.09;3055833;19;1033;-49
2022/08/18 01:27:47;;;;;;;;;;;;;;;19.61;100.00;99708.72;3056024;19;1067;-49
2022/08/18 01:28:51;;;;;;;;;;;;;;;19.61;100.00;99704.16;3055489;19;1072;-49
2022/08/18 01:29:53;;;;;;;;;;;;;;;19.60;100.00;99705.19;3056049;19;1238;-50
2022/08/18 01:30:58;;;;;;;;;;;;;;;19.60;100.00;99699.75;3056444;19;1077;-49
2022/08/18 01:32:00;;;;;;;;;;;;;;;19.59;100.00;99695.38;3055751;19;1183;-48
2022/08/18 01:33:11;;;;;;;;;;;;;;;19.60;100.00;99693.50;3051027;19;975;-49
2022/08/18 01:34:13;;;;;;;;;;;;;;;19.60;100.00;99691.66;3048929;19;975;-49
2022/08/18 01:35:17;;;;;;;;;;;;;;;19.59;100.00;99697.22;3048192;19;1006;-49
2022/08/18 01:36:19;;;;;;;;;;;;;;;19.60;100.00;99702.47;3048643;19;1912;-49
2022/08/18 01:37:25;;;;;;;;;;;;;;;19.59;100.00;99698.06;3050743;19;1183;-49
2022/08/18 01:38:30;;;;;;;;;;;;;;;19.60;100.00;99694.34;3051576;19;983;-49
2022/08/18 01:39:37;;;;;;;;;;;;;;;19.60;100.00;99709.75;3052108;19;1044;-50
2022/08/18 01:40:59;;;;;;;;;;;;;;;19.59;100.00;99706.19;3056409;19;1130;-49
2022/08/18 01:42:23;;;;;;;;;;;;;;;19.59;100.00;99706.19;3055911;19;1000;-50
2022/08/18 01:43:25;;;;;;;;;;;;;;;19.58;100.00;99711.78;3055804;19;1026;-49
2022/08/18 01:44:30;;;;;;;;;;;;;;;19.59;100.00;99702.63;3056243;19;1684;-49
2022/08/18 01:45:32;;;;;;;;;;;;;;;19.59;100.00;99702.63;3056293;19;990;-48
2022/08/18 01:46:36;;;;;;;;;;;;;;;19.57;100.00;99702.81;3055037;19;1630;-49
2022/08/18 01:47:39;;;;;;;;;;;;;;;19.56;100.00;99709.22;3056307;19;1204;-48
2022/08/18 01:48:52;;;;;;;;;;;;;;;19.54;100.00;99711.28;3055916;19;1050;-49
2022/08/18 01:49:57;;;;;;;;;;;;;;;19.52;100.00;99710.63;3054547;19;924;-50
2022/08/18 01:51:02;;;;;;;;;;;;;;;19.50;100.00;99709.94;3055800;19;932;-49
2022/08/18 01:52:05;;;;;;;;;;;;;;;19.49;100.00;99715.50;3055841;19;1246;-49
2022/08/18 01:53:10;;;;;;;;;;;;;;;19.49;100.00;99719.06;3055991;19;1712;-48
2022/08/18 01:54:13;;;;;;;;;;;;;;;19.49;100.00;99712.81;3056252;19;1095;-50
2022/08/18 01:55:17;;;;;;;;;;;;;;;19.48;100.00;99714.63;3054584;19;1000;-49
2022/08/18 01:56:19;;;;;;;;;;;;;;;19.45;100.00;99709.56;3048705;19;1840;-49
2022/08/18 01:57:24;;;;;;;;;;;;;;;19.44;100.00;99697.88;3048398;19;904;-50
2022/08/18 01:58:26;;;;;;;;;;;;;;;19.44;100.00;99699.78;3048398;19;1000;-49
2022/08/18 01:59:35;;;;;;;;;;;;;;;19.42;100.00;99702.66;3051199;19;904;-48
2022/08/18 02:00:37;;;;;;;;;;;;;;;19.42;100.00;99701.81;3050665;19;909;-49
2022/08/18 02:01:42;;;;;;;;;;;;;;;19.41;100.00;99700.09;3050989;19;1074;-48
2022/08/18 02:02:54;;;;;;;;;;;;;;;19.40;100.00;99695.72;3052535;19;1053;-48
2022/08/18 02:04:06;;;;;;;;;;;;;;;19.41;100.00;99700.09;3055290;19;1078;-48
2022/08/18 02:05:30;;;;;;;;;;;;;;;19.39;100.00;99689.44;3055349;19;1245;-49
2022/08/18 02:06:34;;;;;;;;;;;;;;;19.40;100.00;99696.56;3055463;19;937;-48
2022/08/18 02:07:39;;;;;;;;;;;;;;;19.30;100.00;99676.09;3055678;19;998;-48
2022/08/18 02:08:46;;;;;;;;;;;;;;;19.38;100.00;99695.03;3056008;19;1087;-49
2022/08/18 02:09:54;;;;;;;;;;;;;;;19.37;100.00;99687.91;3055976;19;1015;-48
2022/08/18 02:11:02;;;;;;;;;;;;;;;19.36;100.00;99697.06;3055778;19;1076;-48
2022/08/18 02:12:06;;;;;;;;;;;;;;;19.35;100.00;99700.78;3055668;19;1084;-49
2022/08/18 02:13:11;;;;;;;;;;;;;;;19.32;100.00;99701.13;3055362;19;1091;-49
2022/08/18 02:14:13;;;;;;;;;;;;;;;19.32;100.00;99703.84;3055666;19;1057;-49
2022/08/18 02:15:17;;;;;;;;;;;;;;;19.31;100.00;99705.69;3055471;19;1142;-48
2022/08/18 02:16:19;;;;;;;;;;;;;;;19.31;100.00;99704.84;3056218;19;1323;-50
2022/08/18 02:17:23;;;;;;;;;;;;;;;19.31;100.00;99704.84;3054462;19;1210;-49
2022/08/18 02:18:27;;;;;;;;;;;;;;;19.30;100.00;99704.00;3049697;19;946;-49
2022/08/18 02:19:51;;;;;;;;;;;;;;;19.31;100.00;99699.44;3048619;19;1186;-49
2022/08/18 02:20:54;;;;;;;;;;;;;;;19.29;100.00;99691.50;3047626;19;1158;-49
2022/08/18 02:21:58;;;;;;;;;;;;;;;19.27;100.00;99693.50;3049195;19;1169;-49
2022/08/18 02:23:00;;;;;;;;;;;;;;;19.28;100.00;99697.06;3050955;19;1184;-49
2022/08/18 02:24:05;;;;;;;;;;;;;;;19.28;100.00;99691.66;3051296;19;1072;-49
2022/08/18 02:25:07;;;;;;;;;;;;;;;19.26;100.00;99688.28;3050720;19;1151;-49
2022/08/18 02:26:13;;;;;;;;;;;;;;;19.25;100.00;99679.31;3055142;19;1786;-48
2022/08/18 02:27:14;;;;;;;;;;;;;;;19.24;100.00;99688.44;3055131;19;1052;-49
2022/08/18 02:28:19;;;;;;;;;;;;;;;19.22;100.00;99678.78;3055617;19;1213;-50
2022/08/18 02:29:21;;;;;;;;;;;;;;;19.23;100.00;99680.47;3055631;19;936;-48
2022/08/18 02:30:25;;;;;;;;;;;;;;;19.22;100.00;99678.78;3055107;19;1061;-50
2022/08/18 02:31:27;;;;;;;;;;;;;;;19.22;100.00;99682.34;3055539;19;1240;-49
2022/08/18 02:32:33;;;;;;;;;;;;;;;19.20;100.00;99683.56;3055568;19;1245;-50
2022/08/18 02:33:35;;;;;;;;;;;;;;;19.19;100.00;99684.56;3055796;19;1117;-50
2022/08/18 02:34:41;;;;;;;;;;;;;;;19.15;100.00;99686.75;3055226;19;1044;-48
2022/08/18 02:35:45;;;;;;;;;;;;;;;19.13;100.00;99691.47;3055285;19;1209;-50
2022/08/18 02:36:49;;;;;;;;;;;;;;;19.12;100.00;99694.34;3055010;19;1853;-49
2022/08/18 02:37:51;;;;;;;;;;;;;;;19.08;100.00;99691.97;3055885;19;1134;-49
2022/08/18 02:38:57;;;;;;;;;;;;;;;19.06;100.00;99688.63;3055446;19;1150;-48
2022/08/18 02:40:00;;;;;;;;;;;;;;;19.02;100.00;99687.25;3055680;19;1149;-49
2022/08/18 02:41:05;;;;;;;;;;;;;;;19.01;100.00;99698.22;3048369;19;1077;-49
2022/08/18 02:42:14;;;;;;;;;;;;;;;18.97;100.00;99686.91;3040822;19;1883;-49
2022/08/18 02:43:18;;;;;;;;;;;;;;;18.94;100.00;99686.41;3054372;19;1577;-48
2022/08/18 02:44:20;;;;;;;;;;;;;;;18.93;100.00;99696.38;3056197;19;1006;-48
2022/08/18 02:45:24;;;;;;;;;;;;;;;18.92;100.00;99697.38;3057667;19;990;-48
2022/08/18 02:46:26;;;;;;;;;;;;;;;18.89;100.00;99686.91;3057466;19;872;-49
2022/08/18 02:47:33;;;;;;;;;;;;;;;18.89;100.00;99695.00;3057481;19;1406;-48
2022/08/18 02:48:35;;;;;;;;;;;;;;;18.87;100.00;99691.63;3057899;19;939;-48
2022/08/18 02:49:40;;;;;;;;;;;;;;;18.84;100.00;99697.34;3057692;19;971;-48
2022/08/18 02:50:45;;;;;;;;;;;;;;;18.82;100.00;99696.69;3057834;19;959;-48
2022/08/18 02:51:49;;;;;;;;;;;;;;;18.79;100.00;99688.91;3057823;19;1578;-49
2022/08/18 02:52:53;;;;;;;;;;;;;;;18.77;100.00;99685.53;3057789;19;927;-48
2022/08/18 02:53:58;;;;;;;;;;;;;;;18.75;100.00;99684.84;3057636;19;911;-48
2022/08/18 02:55:00;;;;;;;;;;;;;;;18.73;100.00;99689.56;3057816;19;995;-48
2022/08/18 02:56:13;;;;;;;;;;;;;;;18.74;100.00;99683.16;3056692;19;1065;-48
2022/08/18 02:57:15;;;;;;;;;;;;;;;18.73;100.00;99689.56;3056669;19;1862;-48
2022/08/18 02:58:19;;;;;;;;;;;;;;;18.72;100.00;99677.06;3057617;19;1786;-48
2022/08/18 02:59:23;;;;;;;;;;;;;;;18.73;100.00;99689.56;3057750;19;976;-49
2022/08/18 03:00:27;;;;;;;;;;;;;;;18.73;100.00;99684.16;3056886;19;967;-48
2022/08/18 03:01:31;;;;;;;;;;;;;;;18.73;100.00;99684.16;3053656;19;2052;-49
2022/08/18 03:02:35;;;;;;;;;;;;;;;18.73;100.00;99681.47;3053318;19;1990;-49
2022/08/18 03:03:37;;;;;;;;;;;;;;;18.74;100.00;99677.75;3054959;19;1012;-49
2022/08/18 03:04:42;;;;;;;;;;;;;;;18.75;100.00;99670.47;3054989;19;1045;-50
2022/08/18 03:05:44;;;;;;;;;;;;;;;18.76;100.00;99662.22;3054703;19;1084;-50
2022/08/18 03:06:48;;;;;;;;;;;;;;;18.79;100.00;99658.34;3054729;19;1368;-48
2022/08/18 03:07:50;;;;;;;;;;;;;;;18.79;100.00;99656.47;3054865;19;987;-49
2022/08/18 03:08:55;;;;;;;;;;;;;;;18.80;100.00;99663.56;3054876;19;1254;-49
2022/08/18 03:09:57;;;;;;;;;;;;;;;18.81;100.00;99659.88;3055197;19;1067;-50
2022/08/18 03:11:26;;;;;;;;;;;;;;;18.81;100.00;99654.47;3055121;19;877;-49
2022/08/18 03:12:28;;;;;;;;;;;;;;;18.81;100.00;99654.47;3053419;19;1070;-49
2022/08/18 03:13:32;;;;;;;;;;;;;;;18.81;100.00;99651.75;3046619;19;1367;-48
2022/08/18 03:14:34;;;;;;;;;;;;;;;18.82;100.00;99658.84;3046248;19;1203;-48
2022/08/18 03:15:40;;;;;;;;;;;;;;;18.82;100.00;99650.75;3046983;19;1038;-49
2022/08/18 03:16:43;;;;;;;;;;;;;;;18.84;100.00;99648.69;3048953;19;1438;-48
2022/08/18 03:17:58;;;;;;;;;;;;;;;18.86;100.00;99657.47;3048729;19;1845;-50
2022/08/18 03:19:00;;;;;;;;;;;;;;;18.86;100.00;99653.94;3049636;19;989;-49
2022/08/18 03:20:05;;;;;;;;;;;;;;;18.85;100.00;99650.38;3051603;19;972;-49
2022/08/18 03:21:26;;;;;;;;;;;;;;;18.85;100.00;99650.38;3055003;19;1309;-49
2022/08/18 03:22:27;;;;;;;;;;;;;;;18.84;100.00;99656.81;3054019;19;1053;-49
2022/08/18 03:23:35;;;;;;;;;;;;;;;18.87;100.00;99661.88;3054158;19;1148;-49
2022/08/18 03:24:39;;;;;;;;;;;;;;;18.87;100.00;99656.47;3054511;19;1090;-49
2022/08/18 03:25:50;;;;;;;;;;;;;;;18.88;100.00;99657.31;3054902;19;1755;-49
2022/08/18 03:26:52;;;;;;;;;;;;;;;18.87;100.00;99661.88;3054359;19;939;-50
2022/08/18 03:27:56;;;;;;;;;;;;;;;18.88;100.00;99660.03;3055267;19;965;-48
2022/08/18 03:28:59;;;;;;;;;;;;;;;18.87;100.00;99659.19;3054935;19;1040;-48
2022/08/18 03:30:04;;;;;;;;;;;;;;;18.89;100.00;99659.00;3054416;19;993;-48
2022/08/18 03:31:13;;;;;;;;;;;;;;;18.85;100.00;99660.34;3055030;19;1019;-49
2022/08/18 03:32:18;;;;;;;;;;;;;;;18.89;100.00;99667.97;3054845;19;1040;-49
2022/08/18 03:33:20;;;;;;;;;;;;;;;18.89;100.00;99659.88;3054315;19;1044;-49
2022/08/18 03:34:24;;;;;;;;;;;;;;;18.82;100.00;99649.91;3054704;19;1571;-49
2022/08/18 03:35:26;;;;;;;;;;;;;;;18.90;100.00;99661.56;3049096;19;967;-50
2022/08/18 03:36:32;;;;;;;;;;;;;;;18.91;100.00;99665.09;3046258;19;1263;-49
2022/08/18 03:37:35;;;;;;;;;;;;;;;18.91;100.00;99668.66;3046181;19;1811;-50
2022/08/18 03:38:40;;;;;;;;;;;;;;;18.93;100.00;99668.50;3047558;19;896;-49
2022/08/18 03:39:41;;;;;;;;;;;;;;;18.94;100.00;99668.31;3049130;19;1246;-49
2022/08/18 03:40:52;;;;;;;;;;;;;;;18.95;100.00;99667.31;3048570;19;1056;-49
2022/08/18 03:41:54;;;;;;;;;;;;;;;18.98;100.00;99666.97;3048238;19;1028;-49
2022/08/18 03:43:05;;;;;;;;;;;;;;;19.02;100.00;99664.78;3052353;19;1327;-49
2022/08/18 03:44:32;;;;;;;;;;;;;;;19.05;100.00;99673.41;3054251;19;1128;-49
2022/08/18 03:45:36;;;;;;;;;;;;;;;19.08;100.00;99678.44;3053827;19;1059;-49
2022/08/18 03:46:39;;;;;;;;;;;;;;;19.10;100.00;99669.31;3054672;19;1033;-49
2022/08/18 03:47:44;;;;;;;;;;;;;;;19.12;100.00;99678.13;3054278;19;1581;-50
2022/08/18 03:48:48;;;;;;;;;;;;;;;19.15;100.00;99683.19;3055139;19;923;-48
2022/08/18 03:49:52;;;;;;;;;;;;;;;19.18;100.00;99682.88;3053682;19;1776;-49
2022/08/18 03:50:54;;;;;;;;;;;;;;;19.22;100.00;99685.03;3053775;19;1065;-49
2022/08/18 03:51:59;;;;;;;;;;;;;;;19.27;100.00;99684.56;3054387;19;1081;-49
2022/08/18 03:53:03;;;;;;;;;;;;;;;19.33;100.00;99686.56;3054626;19;1245;-49
2022/08/18 03:54:08;;;;;;;;;;;;;;;19.38;100.00;99689.63;3054326;19;1222;-49
2022/08/18 03:55:10;;;;;;;;;;;;;;;19.41;100.00;99686.56;3054200;19;1890;-49
2022/08/18 03:56:17;;;;;;;;;;;;;;;19.44;100.00;99681.66;3052841;19;991;-49
2022/08/18 03:57:19;;;;;;;;;;;;;;;19.47;100.00;99683.16;3052387;19;1244;-49
2022/08/18 03:58:25;;;;;;;;;;;;;;;19.51;100.00;99689.97;3044412;19;1870;-49
2022/08/18 03:59:27;;;;;;;;;;;;;;;19.55;100.00;99691.34;3046409;19;989;-49
2022/08/18 04:00:32;;;;;;;;;;;;;;;19.61;100.00;99700.63;3045515;19;1032;-49
2022/08/18 04:01:38;;;;;;;;;;;;;;;19.65;100.00;99702.81;3048792;19;1312;-49
2022/08/18 04:02:42;;;;;;;;;;;;;;;19.72;100.00;99703.81;3048897;19;986;-49
2022/08/18 04:03:46;;;;;;;;;;;;;;;19.86;100.00;99709.53;3049490;19;1071;-49
2022/08/18 04:04:52;;;;;;;;;;;;;;;20.20;100.00;99706.53;3048940;19;1181;-48
2022/08/18 04:05:55;;;;;;;;;;;;;;;20.77;100.00;99715.31;3053911;19;964;-49
2022/08/18 04:07:03;;;;;;;;;;;;;;;21.28;100.00;99726.47;3053974;19;1030;-50
2022/08/18 04:08:05;;;;;;;;;;;;;;;21.77;100.00;99752.19;3054944;19;1112;-49
2022/08/18 04:09:11;;;;;;;;;;;;;;;22.19;100.00;99767.94;3054287;19;1082;-48
2022/08/18 04:10:13;;;;;;;;;;;;;;;22.61;100.00;99802.59;3054511;19;989;-49
2022/08/18 04:11:23;;;;;;;;;;;;;;;23.02;100.00;99837.50;3054658;19;1051;-48
2022/08/18 04:12:25;;;;;;;;;;;;;;;23.38;100.00;99878.34;3054920;19;1060;-49
2022/08/18 04:13:35;;;;;;;;;;;;;;;23.73;100.00;99917.53;3057533;19;1079;-48
2022/08/18 04:14:37;;;;;;;;;;;;;;;24.09;100.00;99962.97;3057596;19;1022;-50
2022/08/18 04:15:42;;;;;;;;;;;;;;;24.42;100.00;99992.28;3056940;19;896;-50
2022/08/18 04:16:44;;;;;;;;;;;;;;;24.80;100.00;100038.34;3057255;19;938;-49
2022/08/18 04:17:48;;;;;;;;;;;;;;;25.10;100.00;100064.47;3057784;19;1154;-48
2022/08/18 04:19:04;;;;;;;;;;;;;;;25.48;100.00;100097.69;3055375;19;1837;-49
2022/08/18 04:20:10;;;;;;;;;;;;;;;25.80;100.00;100122.75;3052263;19;1238;-50
2022/08/18 04:21:12;;;;;;;;;;;;;;;26.11;100.00;100142.25;3048449;19;960;-50
2022/08/18 04:22:17;;;;;;;;;;;;;;;26.39;100.00;100160.50;3048779;19;1153;-49
2022/08/18 04:23:20;;;;;;;;;;;;;;;26.68;100.00;100170.28;3049552;19;1286;-49
2022/08/18 04:24:24;;;;;;;;;;;;;;;26.95;100.00;100182.16;3052174;19;1044;-50
2022/08/18 04:25:27;;;;;;;;;;;;;;;27.22;100.00;100195.69;3052082;19;1101;-49
2022/08/18 04:26:37;;;;;;;;;;;;;;;27.45;100.00;100200.75;3052608;19;1329;-49
2022/08/18 04:27:41;;;;;;;;;;;;;;;27.69;100.00;100207.50;3053677;19;983;-49
2022/08/18 04:28:46;;;;;;;;;;;;;;;27.95;100.00;100212.13;3056550;19;1158;-48
2022/08/18 04:29:47;;;;;;;;;;;;;;;28.21;100.00;100222.22;3057122;19;1059;-48
2022/08/18 04:30:52;;;;;;;;;;;;;;;28.44;100.00;100224.47;3057026;19;1039;-49
2022/08/18 04:31:54;;;;;;;;;;;;;;;28.65;100.00;100240.63;3057086;19;956;-49
2022/08/18 04:33:00;;;;;;;;;;;;;;;28.86;100.00;100243.06;3056694;19;1213;-49
2022/08/18 04:34:02;;;;;;;;;;;;;;;29.07;100.00;100257.56;3056217;19;892;-50
2022/08/18 04:35:07;;;;;;;;;;;;;;;29.26;100.00;100254.69;3056781;19;1187;-50
2022/08/18 04:36:15;;;;;;;;;;;;;;;29.47;100.00;100264.50;3057392;19;1018;-49
2022/08/18 04:37:24;;;;;;;;;;;;;;;29.59;100.00;100265.47;3057518;19;1066;-50
2022/08/18 04:38:26;;;;;;;;;;;;;;;29.69;100.00;100276.81;3057113;19;1846;-48
2022/08/18 04:39:31;;;;;;;;;;;;;;;29.77;100.00;100277.59;3056450;19;1569;-50
2022/08/18 04:40:33;;;;;;;;;;;;;;;29.86;100.00;100270.75;3057070;19;1766;-49
2022/08/18 04:41:38;;;;;;;;;;;;;;;29.92;100.00;100264.34;3056726;19;940;-49
2022/08/18 04:42:40;;;;;;;;;;;;;;;29.93;100.00;100261.38;3053428;19;1200;-49
2022/08/18 04:43:46;;;;;;;;;;;;;;;29.96;100.00;100260.09;3047079;19;984;-49
2022/08/18 04:44:50;;;;;;;;;;;;;;;29.95;100.00;100263.88;3047808;19;1320;-49
2022/08/18 04:46:00;;;;;;;;;;;;;;;29.92;100.00;100264.34;3046618;19;1126;-49
2022/08/18 04:47:05;;;;;;;;;;;;;;;29.79;100.00;100258.97;3050368;19;1160;-49
2022/08/18 04:48:07;;;;;;;;;;;;;;;29.69;100.00;100259.47;3050801;19;1074;-49
2022/08/18 04:49:16;;;;;;;;;;;;;;;29.60;100.00;100261.66;3051340;19;967;-49
2022/08/18 04:50:18;;;;;;;;;;;;;;;29.48;100.00;100257.94;3053726;19;1254;-48
2022/08/18 04:51:22;;;;;;;;;;;;;;;29.30;100.00;100253.19;3057176;19;1039;-49
2022/08/18 04:54:01;;;;;;;;;;;;;;;28.04;100.00;100242.91;3056789;19;1149;-50
2022/08/18 04:55:06;;;;;;;;;;;;;;;27.56;100.00;100241.25;3056539;19;1142;-49
2022/08/18 04:56:08;;;;;;;;;;;;;;;27.22;100.00;100227.72;3055899;19;1117;-50
2022/08/18 04:57:19;;;;;;;;;;;;;;;26.95;100.00;100217.75;3056620;19;1250;-48
2022/08/18 04:58:22;;;;;;;;;;;;;;;26.68;100.00;100212.19;3055160;19;1019;-49
2022/08/18 04:59:26;;;;;;;;;;;;;;;26.49;100.00;100205.59;3054881;19;1838;-49
2022/08/18 05:00:28;;;;;;;;;;;;;;;26.26;100.00;100195.97;3055813;19;1192;-49
2022/08/18 05:01:35;;;;;;;;;;;;;;;26.10;100.00;100188.94;3055262;19;1245;-49
2022/08/18 05:02:36;;;;;;;;;;;;;;;25.94;100.00;100190.13;3056079;19;1148;-48
2022/08/18 05:03:41;;;;;;;;;;;;;;;25.83;100.00;100182.50;3055308;19;1030;-49
2022/08/18 05:04:51;;;;;;;;;;;;;;;25.61;100.00;100167.19;3053818;19;959;-49
2022/08/18 05:05:57;;;;;;;;;;;;;;;25.55;100.00;100178.91;3047368;19;1237;-48
2022/08/18 05:06:59;;;;;;;;;;;;;;;25.44;100.00;100170.22;3047081;19;1380;-49
2022/08/18 05:08:03;;;;;;;;;;;;;;;25.31;100.00;100156.44;3047623;19;892;-49
2022/08/18 05:09:06;;;;;;;;;;;;;;;25.24;100.00;100160.97;3051014;19;986;-49
2022/08/18 05:10:11;;;;;;;;;;;;;;;25.13;100.00;100148.72;3050155;19;1598;-49
2022/08/18 05:11:13;;;;;;;;;;;;;;;25.04;100.00;100144.44;3050703;19;1387;-49
2022/08/18 05:12:18;;;;;;;;;;;;;;;25.00;100.00;100145.00;3051695;19;968;-49
2022/08/18 05:13:26;;;;;;;;;;;;;;;24.93;100.00;100142.25;3056161;19;997;-49
2022/08/18 05:14:31;;;;;;;;;;;;;;;24.88;100.00;100127.44;3055999;19;1040;-49
2022/08/18 05:15:33;;;;;;;;;;;;;;;24.84;100.00;100124.28;3055394;19;1217;-49
2022/08/18 05:17:05;;;;;;;;;;;;;;;24.77;100.00;100121.47;3056032;19;1131;-49
2022/08/18 05:18:07;;;;;;;;;;;;;;;24.75;100.00;100106.34;3056831;19;1233;-49
2022/08/18 05:19:20;;;;;;;;;;;;;;;24.73;100.00;100114.72;3055118;19;1864;-49
2022/08/18 05:20:29;;;;;;;;;;;;;;;24.72;100.00;100113.03;3056543;19;1189;-50
2022/08/18 05:21:32;;;;;;;;;;;;;;;24.69;100.00;100112.56;3055836;19;1542;-49
2022/08/18 05:22:41;;;;;;;;;;;;;;;24.64;100.00;100110.41;3056593;19;1122;-47
2022/08/18 05:23:43;;;;;;;;;;;;;;;24.60;100.00;100103.69;3053762;19;1700;-51
2022/08/18 05:24:48;;;;;;;;;;;;;;;24.59;100.00;100107.44;3052299;19;1213;-50
2022/08/18 05:25:55;;;;;;;;;;;;;;;24.58;100.00;100094.84;3053472;19;1445;-49
2022/08/18 05:26:59;;;;;;;;;;;;;;;24.54;100.00;100101.72;3054730;19;959;-50
2022/08/18 05:28:01;;;;;;;;;;;;;;;24.51;100.00;100093.94;3045569;19;1297;-49
2022/08/18 05:29:06;;;;;;;;;;;;;;;24.53;100.00;100075.47;3045893;19;1003;-50
2022/08/18 05:30:23;;;;;;;;;;;;;;;24.54;100.00;100090.78;3046295;19;1522;-49
2022/08/18 05:31:25;;;;;;;;;;;;;;;24.55;100.00;100078.84;3048946;19;1228;-49
2022/08/18 05:32:31;;;;;;;;;;;;;;;24.56;100.00;100083.28;3048675;19;1480;-50
2022/08/18 05:33:52;;;;;;;;;;;;;;;24.60;100.00;100084.59;3049621;19;1574;-49
2022/08/18 05:34:55;;;;;;;;;;;;;;;24.65;100.00;100081.25;3052225;19;954;-48
2022/08/18 05:36:04;;;;;;;;;;;;;;;24.70;100.00;100081.53;3053595;19;1755;-50
2022/08/18 05:37:13;;;;;;;;;;;;;;;24.74;100.00;100080.94;3055381;19;967;-50
2022/08/18 05:38:28;;;;;;;;;;;;;;;24.78;100.00;100087.69;3053274;19;1165;-49
2022/08/18 05:39:47;;;;;;;;;;;;;;;24.85;100.00;100092.38;3053666;19;1858;-49
2022/08/18 05:41:09;;;;;;;;;;;;;;;24.90;100.00;100103.53;3053980;19;1399;-49
2022/08/18 05:42:18;;;;;;;;;;;;;;;24.93;100.00;100111.38;3054353;19;1220;-49
2022/08/18 05:43:20;;;;;;;;;;;;;;;24.98;100.00;100106.16;3054276;19;2386;-49
2022/08/18 05:44:26;;;;;;;;;;;;;;;25.05;100.00;100115.25;3053321;19;1711;-50
2022/08/18 05:45:28;;;;;;;;;;;;;;;25.11;100.00;100114.47;3053973;19;1444;-48
2022/08/18 05:46:42;;;;;;;;;;;;;;;25.17;100.00;100116.41;3054070;19;1623;-52
2022/08/18 05:47:43;;;;;;;;;;;;;;;25.23;100.00;100118.34;3054503;19;1773;-50
2022/08/18 05:48:48;;;;;;;;;;;;;;;25.28;100.00;100115.00;3053624;19;943;-49
2022/08/18 05:49:51;;;;;;;;;;;;;;;25.32;100.00;100117.16;3051613;19;1634;-49